createdAt,value
2022-11-18T00:01:04.207Z,25.88
2022-11-18T00:03:30.576Z,25.87
2022-11-18T00:05:56.994Z,25.86
2022-11-18T00:08:23.346Z,25.86
2022-11-18T00:10:49.751Z,25.85
2022-11-18T00:13:16.168Z,25.85
2022-11-18T00:15:42.561Z,25.86
2022-11-18T00:18:09.826Z,25.75
2022-11-18T00:20:36.215Z,25.85
2022-11-18T00:23:02.559Z,25.85
2022-11-18T00:25:28.963Z,25.86
2022-11-18T00:27:55.324Z,25.83
2022-11-18T00:30:21.797Z,25.83
2022-11-18T00:32:48.139Z,25.80
2022-11-18T00:35:14.541Z,25.80
2022-11-18T00:37:40.893Z,25.82
2022-11-18T00:40:07.281Z,25.82
2022-11-18T00:42:33.655Z,25.80
2022-11-18T00:45:00.041Z,25.81
2022-11-18T00:47:26.403Z,25.81
2022-11-18T00:49:52.832Z,25.79
2022-11-18T00:52:19.227Z,25.77
2022-11-18T00:54:45.587Z,25.78
2022-11-18T00:57:11.987Z,25.77
2022-11-18T00:59:38.362Z,25.77
2022-11-18T01:02:04.752Z,25.75
2022-11-18T01:04:31.099Z,25.76
2022-11-18T01:06:57.606Z,25.75
2022-11-18T01:09:23.903Z,25.77
2022-11-18T01:11:50.297Z,25.77
2022-11-18T01:14:16.648Z,25.76
2022-11-18T01:16:43.043Z,25.75
2022-11-18T01:19:09.397Z,25.73
2022-11-18T01:21:35.832Z,25.72
2022-11-18T01:24:02.168Z,25.74
2022-11-18T01:26:28.588Z,25.73
2022-11-18T01:28:54.939Z,25.72
2022-11-18T01:31:21.335Z,25.68
2022-11-18T01:33:47.687Z,25.69
2022-11-18T01:36:14.090Z,25.69
2022-11-18T01:38:40.494Z,25.68
2022-11-18T01:41:06.910Z,25.68
2022-11-18T01:43:33.277Z,25.69
2022-11-18T01:45:59.694Z,25.68
2022-11-18T01:48:26.037Z,25.67
2022-11-18T01:50:53.882Z,25.69
2022-11-18T01:53:18.838Z,25.70
2022-11-18T01:55:45.239Z,25.65
2022-11-18T01:58:11.587Z,25.65
2022-11-18T02:00:37.997Z,25.66
2022-11-18T02:03:04.345Z,25.64
2022-11-18T02:05:31.997Z,25.64
2022-11-18T02:07:57.090Z,25.64
2022-11-18T02:10:23.493Z,25.63
2022-11-18T02:12:49.837Z,25.65
2022-11-18T02:15:16.232Z,25.65
2022-11-18T02:17:42.593Z,25.61
2022-11-18T02:20:08.987Z,25.62
2022-11-18T02:22:35.385Z,25.62
2022-11-18T02:25:01.810Z,25.61
2022-11-18T02:27:28.166Z,25.61
2022-11-18T02:29:54.599Z,25.62
2022-11-18T02:32:20.955Z,25.62
2022-11-18T02:34:47.368Z,25.59
2022-11-18T02:37:13.718Z,25.57
2022-11-18T02:39:40.126Z,25.59
2022-11-18T02:42:06.482Z,25.58
2022-11-18T02:44:32.962Z,25.57
2022-11-18T02:46:59.311Z,25.57
2022-11-18T02:49:25.711Z,25.56
2022-11-18T02:51:53.189Z,25.55
2022-11-18T02:54:18.476Z,25.56
2022-11-18T02:56:44.827Z,25.56
2022-11-18T02:59:11.217Z,25.55
2022-11-18T03:01:37.616Z,25.55
2022-11-18T03:04:03.971Z,25.56
2022-11-18T03:06:30.323Z,25.56
2022-11-18T03:08:56.725Z,25.53
2022-11-18T03:11:23.082Z,25.52
2022-11-18T03:13:49.492Z,25.51
2022-11-18T03:16:15.844Z,25.52
2022-11-18T03:18:42.243Z,25.52
2022-11-18T03:21:08.594Z,25.51
2022-11-18T03:23:34.990Z,25.51
2022-11-18T03:26:01.338Z,25.49
2022-11-18T03:28:27.769Z,25.50
2022-11-18T03:30:54.125Z,25.47
2022-11-18T03:33:20.523Z,25.48
2022-11-18T03:35:46.883Z,25.46
2022-11-18T03:38:13.282Z,25.48
2022-11-18T03:40:39.632Z,25.47
2022-11-18T03:43:06.026Z,25.44
2022-11-18T03:45:32.376Z,25.45
2022-11-18T03:47:58.782Z,25.43
2022-11-18T03:50:25.163Z,25.42
2022-11-18T03:52:51.554Z,25.44
2022-11-18T03:55:17.946Z,25.48
2022-11-18T03:57:44.352Z,25.44
2022-11-18T04:00:10.706Z,25.42
2022-11-18T04:02:37.104Z,25.42
2022-11-18T04:05:03.504Z,25.43
2022-11-18T04:07:30.043Z,25.43
2022-11-18T04:09:56.299Z,25.43
2022-11-18T04:12:22.700Z,25.43
2022-11-18T04:14:49.062Z,25.40
2022-11-18T04:17:15.464Z,25.41
2022-11-18T04:19:41.819Z,25.41
2022-11-18T04:22:08.210Z,25.38
2022-11-18T04:24:34.571Z,25.41
2022-11-18T04:27:00.975Z,25.41
2022-11-18T04:29:27.337Z,25.40
2022-11-18T04:31:53.733Z,25.40
2022-11-18T04:34:20.101Z,25.39
2022-11-18T04:36:46.493Z,25.36
2022-11-18T04:39:12.846Z,25.38
2022-11-18T04:41:39.254Z,25.36
2022-11-18T04:44:05.604Z,25.36
2022-11-18T04:46:32.004Z,25.37
2022-11-18T04:48:58.354Z,25.36
2022-11-18T04:51:24.787Z,25.35
2022-11-18T04:53:51.148Z,25.37
2022-11-18T04:56:17.579Z,25.40
2022-11-18T04:58:43.939Z,25.40
2022-11-18T05:01:10.382Z,25.41
2022-11-18T05:03:36.697Z,25.42
2022-11-18T05:06:03.086Z,25.41
2022-11-18T05:08:29.533Z,25.43
2022-11-18T05:10:55.842Z,25.41
2022-11-18T05:13:22.213Z,25.39
2022-11-18T05:15:48.612Z,25.41
2022-11-18T05:18:14.969Z,25.42
2022-11-18T05:20:41.830Z,25.42
2022-11-18T05:23:07.717Z,25.44
2022-11-18T05:25:34.119Z,25.44
2022-11-18T05:28:00.476Z,25.42
2022-11-18T05:30:26.949Z,25.46
2022-11-18T05:32:53.291Z,25.44
2022-11-18T05:35:19.691Z,25.49
2022-11-18T05:37:46.045Z,25.49
2022-11-18T05:40:12.449Z,25.48
2022-11-18T05:42:38.807Z,25.49
2022-11-18T05:45:05.231Z,25.51
2022-11-18T05:47:31.593Z,25.53
2022-11-18T05:49:57.982Z,26.08
2022-11-18T05:52:24.371Z,25.59
2022-11-18T05:54:50.764Z,25.49
2022-11-18T05:57:17.109Z,25.55
2022-11-18T05:59:43.512Z,25.67
2022-11-18T06:02:09.875Z,25.72
2022-11-18T06:04:36.274Z,25.79
2022-11-18T06:07:02.634Z,25.86
2022-11-18T06:09:29.019Z,25.92
2022-11-18T06:11:55.374Z,25.94
2022-11-18T06:14:21.777Z,25.98
2022-11-18T06:16:48.133Z,26.02
2022-11-18T06:19:14.535Z,26.08
2022-11-18T06:21:40.874Z,26.16
2022-11-18T06:24:07.288Z,26.17
2022-11-18T06:26:33.674Z,26.24
2022-11-18T06:29:00.144Z,26.29
2022-11-18T06:31:26.502Z,26.30
2022-11-18T06:33:52.937Z,26.36
2022-11-18T06:36:19.290Z,26.40
2022-11-18T06:38:45.682Z,26.37
2022-11-18T06:41:12.039Z,26.41
2022-11-18T06:43:38.492Z,26.46
2022-11-18T06:46:08.912Z,26.47
2022-11-18T06:48:31.253Z,26.51
2022-11-18T06:50:57.604Z,26.53
2022-11-18T06:53:23.993Z,26.56
2022-11-18T06:55:50.345Z,26.61
2022-11-18T06:58:16.740Z,26.61
2022-11-18T07:00:43.170Z,26.61
2022-11-18T07:03:09.549Z,26.65
2022-11-18T07:05:35.899Z,26.66
2022-11-18T07:08:02.326Z,26.66
2022-11-18T07:10:28.765Z,26.61
2022-11-18T07:12:55.086Z,26.60
2022-11-18T07:15:21.428Z,26.55
2022-11-18T07:17:47.824Z,26.52
2022-11-18T07:20:14.165Z,26.52
2022-11-18T07:22:40.604Z,26.49
2022-11-18T07:25:06.969Z,26.45
2022-11-18T07:27:34.318Z,26.45
2022-11-18T07:29:59.731Z,26.45
2022-11-18T07:32:26.145Z,26.44
2022-11-18T07:34:52.495Z,26.42
2022-11-18T07:37:18.897Z,26.40
2022-11-18T07:39:45.249Z,26.40
2022-11-18T07:42:11.649Z,26.36
2022-11-18T07:44:37.997Z,26.28
2022-11-18T07:47:04.393Z,26.35
2022-11-18T07:49:30.737Z,26.38
2022-11-18T07:51:57.145Z,26.38
2022-11-18T07:54:23.494Z,26.38
2022-11-18T07:56:49.934Z,26.40
2022-11-18T07:59:16.659Z,26.39
2022-11-18T08:01:42.771Z,26.35
2022-11-18T08:04:09.084Z,26.34
2022-11-18T08:06:35.502Z,26.40
2022-11-18T08:09:01.864Z,26.40
2022-11-18T08:11:28.306Z,26.41
2022-11-18T08:13:54.667Z,26.41
2022-11-18T08:16:21.133Z,26.38
2022-11-18T08:18:47.530Z,26.39
2022-11-18T08:21:13.978Z,26.37
2022-11-18T08:23:42.316Z,26.43
2022-11-18T08:26:06.744Z,26.45
2022-11-18T08:28:34.611Z,26.50
2022-11-18T08:30:59.733Z,26.47
2022-11-18T08:33:27.035Z,26.44
2022-11-18T08:35:52.476Z,26.43
2022-11-18T08:38:18.837Z,26.41
2022-11-18T08:40:45.610Z,26.42
2022-11-18T08:43:11.962Z,26.41
2022-11-18T08:45:38.369Z,26.41
2022-11-18T08:48:05.954Z,26.45
2022-11-18T08:50:31.123Z,26.39
2022-11-18T08:52:57.501Z,26.41
2022-11-18T08:55:25.113Z,26.36
2022-11-18T08:57:50.298Z,26.40
2022-11-18T09:00:16.692Z,26.38
2022-11-18T09:02:43.050Z,26.37
2022-11-18T09:05:09.451Z,26.23
2022-11-18T09:07:35.869Z,26.39
2022-11-18T09:10:02.211Z,26.40
2022-11-18T09:12:28.588Z,26.38
2022-11-18T09:17:21.346Z,26.40
2022-11-18T09:19:48.458Z,26.40
2022-11-18T09:22:14.118Z,26.40
2022-11-18T09:24:40.530Z,26.41
2022-11-18T09:27:10.813Z,26.45
2022-11-18T09:29:33.290Z,26.44
2022-11-18T09:31:59.645Z,26.41
2022-11-18T09:34:26.066Z,26.41
2022-11-18T09:36:52.429Z,26.49
2022-11-18T09:39:21.059Z,26.47
2022-11-18T09:41:47.315Z,26.50
2022-11-18T09:44:13.710Z,26.51
2022-11-18T09:46:40.054Z,26.55
2022-11-18T09:49:06.457Z,26.50
2022-11-18T09:51:32.851Z,26.50
2022-11-18T09:53:59.240Z,26.59
2022-11-18T09:56:25.626Z,26.66
2022-11-18T09:58:52.004Z,26.69
2022-11-18T10:01:18.404Z,26.78
2022-11-18T10:03:44.747Z,26.80
2022-11-18T10:06:11.163Z,26.80
2022-11-18T10:08:37.604Z,26.82
2022-11-18T10:11:03.978Z,26.86
2022-11-18T10:13:30.377Z,26.85
2022-11-18T10:15:56.740Z,26.91
2022-11-18T10:18:59.354Z,26.91
2022-11-18T10:20:49.499Z,26.89
2022-11-18T10:23:15.922Z,26.89
2022-11-18T10:25:42.302Z,27.01
2022-11-18T10:28:08.689Z,26.95
2022-11-18T10:30:35.079Z,26.95
2022-11-18T10:33:01.484Z,27.16
2022-11-18T10:35:29.271Z,27.22
2022-11-18T10:38:07.313Z,27.22
2022-11-18T10:40:20.596Z,27.23
2022-11-18T10:42:47.009Z,27.25
2022-11-18T10:45:13.370Z,27.31
2022-11-18T10:47:39.775Z,27.31
2022-11-18T10:50:06.171Z,27.16
2022-11-18T10:52:32.565Z,27.39
2022-11-18T10:54:58.916Z,27.33
2022-11-18T10:57:25.335Z,27.40
2022-11-18T10:59:51.661Z,27.50
2022-11-18T11:02:18.149Z,27.31
2022-11-18T11:04:44.417Z,27.42
2022-11-18T11:07:10.833Z,27.42
2022-11-18T11:09:37.183Z,27.27
2022-11-18T11:12:03.573Z,27.33
2022-11-18T11:14:29.937Z,27.34
2022-11-18T11:16:56.355Z,27.45
2022-11-18T11:19:22.775Z,27.56
2022-11-18T11:21:49.104Z,27.57
2022-11-18T11:24:15.734Z,27.72
2022-11-18T11:29:08.301Z,27.53
2022-11-18T11:31:34.648Z,27.51
2022-11-18T11:34:01.131Z,27.63
2022-11-18T11:36:27.432Z,27.73
2022-11-18T11:38:53.849Z,27.73
2022-11-18T11:41:21.214Z,27.77
2022-11-18T11:43:47.597Z,27.78
2022-11-18T11:46:13.942Z,27.75
2022-11-18T11:48:40.356Z,27.69
2022-11-18T11:51:06.716Z,27.82
2022-11-18T11:53:33.215Z,27.77
2022-11-18T11:55:59.560Z,27.63
2022-11-18T11:58:25.948Z,27.53
2022-11-18T12:00:52.313Z,27.46
2022-11-18T12:03:18.804Z,27.48
2022-11-18T12:05:45.058Z,27.55
2022-11-18T12:08:11.453Z,27.73
2022-11-18T12:10:37.798Z,27.84
2022-11-18T12:13:04.180Z,27.74
2022-11-18T12:15:30.520Z,27.74
2022-11-18T12:17:56.996Z,27.69
2022-11-18T12:20:23.348Z,27.72
2022-11-18T12:22:49.774Z,27.76
2022-11-18T12:25:16.101Z,27.78
2022-11-18T12:27:42.480Z,27.81
2022-11-18T12:30:08.820Z,27.90
2022-11-18T12:32:35.210Z,27.83
2022-11-18T12:35:01.572Z,27.69
2022-11-18T12:37:27.996Z,27.67
2022-11-18T12:39:54.337Z,27.66
2022-11-18T12:42:20.729Z,27.64
2022-11-18T12:44:47.093Z,27.69
2022-11-18T12:47:13.477Z,27.69
2022-11-18T12:49:39.829Z,27.66
2022-11-18T12:52:06.227Z,27.75
2022-11-18T12:54:32.575Z,27.67
2022-11-18T12:56:58.953Z,27.74
2022-11-18T12:59:25.294Z,27.77
2022-11-18T13:01:51.679Z,27.69
2022-11-18T13:04:18.021Z,27.66
2022-11-18T13:06:45.853Z,27.71
2022-11-18T13:09:10.768Z,25.30
2022-11-18T13:11:37.243Z,25.10
2022-11-18T13:14:03.522Z,25.06
2022-11-18T13:16:35.555Z,24.91
2022-11-18T13:18:56.259Z,24.85
2022-11-18T13:21:22.708Z,24.76
2022-11-18T13:23:49.045Z,25.01
2022-11-18T13:26:15.432Z,24.76
2022-11-18T13:28:41.789Z,24.87
2022-11-18T13:31:08.220Z,24.87
2022-11-18T13:33:34.561Z,24.89
2022-11-18T13:36:00.964Z,24.86
2022-11-18T13:38:28.722Z,24.72
2022-11-18T13:40:53.705Z,24.64
2022-11-18T13:43:20.051Z,24.64
2022-11-18T13:45:46.445Z,24.73
2022-11-18T13:48:12.799Z,24.73
2022-11-18T13:50:39.202Z,24.73
2022-11-18T13:53:05.549Z,24.58
2022-11-18T13:55:31.931Z,24.58
2022-11-18T13:57:58.275Z,24.69
2022-11-18T14:00:24.735Z,24.49
2022-11-18T14:02:51.033Z,24.65
2022-11-18T14:05:21.261Z,24.48
2022-11-18T14:07:43.780Z,24.56
2022-11-18T14:10:10.211Z,24.40
2022-11-18T14:12:36.552Z,24.54
2022-11-18T14:15:02.898Z,24.50
2022-11-18T14:17:29.235Z,24.50
2022-11-18T14:19:55.638Z,24.55
2022-11-18T14:22:21.980Z,24.55
2022-11-18T14:24:48.399Z,24.41
2022-11-18T14:27:14.743Z,24.47
2022-11-18T14:29:43.545Z,24.62
2022-11-18T14:32:09.899Z,24.66
2022-11-18T14:34:36.287Z,24.66
2022-11-18T14:37:02.650Z,24.48
2022-11-18T14:39:29.062Z,24.48
2022-11-18T14:41:55.405Z,24.64
2022-11-18T14:44:21.773Z,24.61
2022-11-18T14:46:48.106Z,24.39
2022-11-18T14:49:14.501Z,24.56
2022-11-18T14:51:40.851Z,24.56
2022-11-18T14:54:07.228Z,24.60
2022-11-18T14:56:33.573Z,24.35
2022-11-18T14:58:59.971Z,24.51
2022-11-18T15:01:30.412Z,24.48
2022-11-18T15:03:52.705Z,24.48
2022-11-18T15:06:19.049Z,24.44
2022-11-18T15:08:45.426Z,24.29
2022-11-18T15:11:11.773Z,24.35
2022-11-18T15:13:39.526Z,24.35
2022-11-18T15:16:04.497Z,24.35
2022-11-18T15:18:30.883Z,24.36
2022-11-18T15:20:57.222Z,24.36
2022-11-18T15:23:29.552Z,24.21
2022-11-18T15:25:49.953Z,24.31
2022-11-18T15:28:16.338Z,24.27
2022-11-18T15:30:42.705Z,24.33
2022-11-18T15:33:09.103Z,24.24
2022-11-18T15:35:35.468Z,24.26
2022-11-18T15:38:01.851Z,24.17
2022-11-18T15:40:28.196Z,24.17
2022-11-18T15:42:54.615Z,24.29
2022-11-18T15:45:21.000Z,24.25
2022-11-18T15:47:47.377Z,24.25
2022-11-18T15:50:13.726Z,24.16
2022-11-18T15:52:40.107Z,24.16
2022-11-18T15:55:08.193Z,24.22
2022-11-18T15:57:32.855Z,24.25
2022-11-18T15:59:59.193Z,24.21
2022-11-18T16:02:25.572Z,24.21
2022-11-18T16:04:51.906Z,24.22
2022-11-18T16:07:18.421Z,24.21
2022-11-18T16:09:44.664Z,24.20
2022-11-18T16:12:11.076Z,24.12
2022-11-18T16:14:37.461Z,24.12
2022-11-18T16:17:03.856Z,24.14
2022-11-18T16:19:30.224Z,24.08
2022-11-18T16:21:56.601Z,24.08
2022-11-18T16:24:22.988Z,24.14
2022-11-18T16:26:49.368Z,24.14
2022-11-18T16:29:15.793Z,24.10
2022-11-18T16:31:42.113Z,24.11
2022-11-18T16:34:08.454Z,24.11
2022-11-18T16:36:34.844Z,24.12
2022-11-18T16:39:01.184Z,24.11
2022-11-18T16:41:27.581Z,24.13
2022-11-18T16:43:53.919Z,23.97
2022-11-18T16:46:20.335Z,23.97
2022-11-18T16:48:48.608Z,24.09
2022-11-18T16:51:13.057Z,24.06
2022-11-18T16:53:39.400Z,24.04
2022-11-18T16:56:05.822Z,24.01
2022-11-18T16:58:32.167Z,24.01
2022-11-18T17:01:18.759Z,24.07
2022-11-18T17:03:24.883Z,23.99
2022-11-18T17:05:51.259Z,23.99
2022-11-18T17:08:17.601Z,23.80
2022-11-18T17:10:43.987Z,23.95
2022-11-18T17:13:10.321Z,23.92
2022-11-18T17:15:36.731Z,23.89
2022-11-18T17:18:03.064Z,23.89
2022-11-18T17:20:29.830Z,23.89
2022-11-18T17:22:56.103Z,23.92
2022-11-18T17:25:22.520Z,23.91
2022-11-18T17:27:48.860Z,23.88
2022-11-18T17:30:15.249Z,23.88
2022-11-18T17:32:41.608Z,23.88
2022-11-18T17:35:08.035Z,23.88
2022-11-18T17:37:34.390Z,23.91
2022-11-18T17:40:00.785Z,23.87
2022-11-18T17:42:27.159Z,23.85
2022-11-18T17:44:53.538Z,23.84
2022-11-18T17:47:19.876Z,23.83
2022-11-18T17:49:46.258Z,23.86
2022-11-18T17:52:12.598Z,23.81
2022-11-18T17:54:38.990Z,23.81
2022-11-18T17:57:05.362Z,23.81
2022-11-18T17:59:31.753Z,23.80
2022-11-18T18:01:59.802Z,23.83
2022-11-18T18:04:24.486Z,23.78
2022-11-18T18:06:50.831Z,23.79
2022-11-18T18:09:17.227Z,23.79
2022-11-18T18:11:43.573Z,23.79
2022-11-18T18:14:11.305Z,23.80
2022-11-18T18:16:36.366Z,23.78
2022-11-18T18:19:02.770Z,23.76
2022-11-18T18:21:29.125Z,23.75
2022-11-18T18:23:55.487Z,23.74
2022-11-18T18:26:25.265Z,23.73
2022-11-18T18:28:48.262Z,23.74
2022-11-18T18:31:14.637Z,23.74
2022-11-18T18:33:42.440Z,23.73
2022-11-18T18:36:07.354Z,23.74
2022-11-18T18:38:33.783Z,23.72
2022-11-18T18:41:00.091Z,23.75
2022-11-18T18:43:26.484Z,23.72
2022-11-18T18:45:52.829Z,23.73
2022-11-18T18:48:19.228Z,23.72
2022-11-18T18:50:45.577Z,23.69
2022-11-18T18:53:11.985Z,23.70
2022-11-18T18:55:44.548Z,23.67
2022-11-18T18:58:04.718Z,23.66
2022-11-18T19:00:31.065Z,23.68
2022-11-18T19:02:57.467Z,23.69
2022-11-18T19:05:45.945Z,23.69
2022-11-18T19:07:50.256Z,23.70
2022-11-18T19:10:16.560Z,23.71
2022-11-18T19:12:43.034Z,23.68
2022-11-18T19:15:09.353Z,23.70
2022-11-18T19:17:35.820Z,23.67
2022-11-18T19:20:02.083Z,23.68
2022-11-18T19:22:28.478Z,23.66
2022-11-18T19:24:55.190Z,23.66
2022-11-18T19:27:21.252Z,23.66
2022-11-18T19:29:47.616Z,23.65
2022-11-18T19:32:13.994Z,23.65
2022-11-18T19:34:40.349Z,23.63
2022-11-18T19:37:06.731Z,23.63
2022-11-18T19:39:33.072Z,23.60
2022-11-18T19:41:59.449Z,23.59
2022-11-18T19:44:25.808Z,23.61
2022-11-18T19:46:52.181Z,23.56
2022-11-18T19:49:18.863Z,23.58
2022-11-18T19:51:44.920Z,23.56
2022-11-18T19:54:11.254Z,23.57
2022-11-18T19:56:37.685Z,23.56
2022-11-18T19:59:04.092Z,23.56
2022-11-18T20:01:30.510Z,23.52
2022-11-18T20:03:56.851Z,23.53
2022-11-18T20:06:23.232Z,23.52
2022-11-18T20:08:49.575Z,23.55
2022-11-18T20:11:15.976Z,23.54
2022-11-18T20:13:42.313Z,23.53
2022-11-18T20:16:08.697Z,23.52
2022-11-18T20:18:35.040Z,23.51
2022-11-18T20:21:01.428Z,23.51
2022-11-18T20:23:27.771Z,23.49
2022-11-18T20:25:54.166Z,23.50
2022-11-18T20:28:20.506Z,23.51
2022-11-18T20:30:46.933Z,23.50
2022-11-18T20:33:13.268Z,23.50
2022-11-18T20:35:39.656Z,23.48
2022-11-18T20:38:06.005Z,23.48
2022-11-18T20:40:32.381Z,23.46
2022-11-18T20:42:58.725Z,23.48
2022-11-18T20:45:25.154Z,23.48
2022-11-18T20:47:51.460Z,23.47
2022-11-18T20:50:17.864Z,23.46
2022-11-18T20:52:44.203Z,23.46
2022-11-18T20:55:10.588Z,23.46
2022-11-18T20:57:36.959Z,23.45
2022-11-18T21:00:03.367Z,23.44
2022-11-18T21:02:29.714Z,23.45
2022-11-18T21:04:56.095Z,23.44
2022-11-18T21:07:22.481Z,23.43
2022-11-18T21:09:48.840Z,23.43
2022-11-18T21:12:15.177Z,23.42
2022-11-18T21:14:41.559Z,23.43
2022-11-18T21:17:07.905Z,23.43
2022-11-18T21:19:34.289Z,23.43
2022-11-18T21:22:00.636Z,23.43
2022-11-18T21:24:27.034Z,23.41
2022-11-18T21:26:53.385Z,23.43
2022-11-18T21:29:20.045Z,23.42
2022-11-18T21:31:46.117Z,23.42
2022-11-18T21:34:12.533Z,23.41
2022-11-18T21:36:44.175Z,23.41
2022-11-18T21:39:05.264Z,23.41
2022-11-18T21:41:31.654Z,23.39
2022-11-18T21:44:05.518Z,23.40
2022-11-18T21:46:24.432Z,23.40
2022-11-18T21:48:52.547Z,23.40
2022-11-18T21:51:17.196Z,23.40
2022-11-18T21:53:43.540Z,23.39
2022-11-18T21:56:09.933Z,23.41
2022-11-18T21:58:36.285Z,23.40
2022-11-18T22:01:02.684Z,23.40
2022-11-18T22:03:29.012Z,23.39
2022-11-18T22:05:55.393Z,23.37
2022-11-18T22:08:21.733Z,23.37
2022-11-18T22:10:48.117Z,23.37
2022-11-18T22:13:14.459Z,23.38
2022-11-18T22:15:40.854Z,23.36
2022-11-18T22:18:07.201Z,23.35
2022-11-18T22:20:33.586Z,23.34
2022-11-18T22:22:59.931Z,23.35
2022-11-18T22:25:26.328Z,23.35
2022-11-18T22:27:52.675Z,23.35
2022-11-18T22:30:19.060Z,23.34
2022-11-18T22:32:45.405Z,23.35
2022-11-18T22:35:11.799Z,23.33
2022-11-18T22:37:38.147Z,23.34
2022-11-18T22:40:04.535Z,23.34
2022-11-18T22:42:30.875Z,23.33
2022-11-18T22:44:57.262Z,23.32
2022-11-18T22:47:23.617Z,23.33
2022-11-18T22:49:55.050Z,23.32
2022-11-18T22:52:16.347Z,23.32
2022-11-18T22:54:42.729Z,23.32
2022-11-18T22:57:09.198Z,23.32
2022-11-18T22:59:35.527Z,23.32
2022-11-18T23:02:01.890Z,23.31
2022-11-18T23:04:28.292Z,23.32
2022-11-18T23:06:54.727Z,23.30
2022-11-18T23:09:21.355Z,23.32
2022-11-18T23:11:47.369Z,23.32
2022-11-18T23:14:13.765Z,23.30
2022-11-18T23:16:42.067Z,23.29
2022-11-18T23:19:06.501Z,23.30
2022-11-18T23:21:32.850Z,23.28
2022-11-18T23:23:59.263Z,23.29
2022-11-18T23:26:25.610Z,23.29
2022-11-18T23:28:51.998Z,23.28
2022-11-18T23:31:18.349Z,23.29
2022-11-18T23:33:44.734Z,23.28
2022-11-18T23:36:11.073Z,23.27
2022-11-18T23:38:37.462Z,23.28
2022-11-18T23:41:03.839Z,23.28
2022-11-18T23:43:30.224Z,23.28
2022-11-18T23:45:56.566Z,23.25
2022-11-18T23:48:22.952Z,23.25
2022-11-18T23:50:49.303Z,23.26
2022-11-18T23:53:15.726Z,23.26
2022-11-18T23:55:42.079Z,23.25
2022-11-18T23:58:08.462Z,23.24
